Time;durP1;ratioP1;P1;durP2;ratioP2;P2;SDS_P1;SDS_P2;PMS_P1;PMS_P2;Temp;Humidity;BMP_temperature;BMP_pressure;BME280_temperature;BME280_humidity;BME280_pressure;Samples;Min_cycle;Max_cycle;Signal;HPM_P1;HPM_P2
2023/03/07 00:00:08;;;;;;;23.77;10.85;;;;;;;-144.47;100.00;53084.50;5049450;28;20444;-71
2023/03/07 00:02:34;;;;;;;25.75;11.05;;;;;;;-144.47;100.00;53054.72;5046100;28;20032;-70
2023/03/07 00:04:59;;;;;;;27.20;10.50;;;;;;;-144.47;100.00;53070.59;5044241;28;20509;-70
2023/03/07 00:07:24;;;;;;;26.58;10.55;;;;;;;-144.47;100.00;53086.50;5045887;28;20075;-69
2023/03/07 00:09:50;;;;;;;25.90;10.95;;;;;;;-144.47;100.00;53066.63;5048813;28;20017;-71
2023/03/07 00:12:15;;;;;;;23.33;10.57;;;;;;;-144.47;100.00;53046.75;5051536;28;20074;-73
2023/03/07 00:14:40;;;;;;;26.52;10.07;;;;;;;-144.47;100.00;53072.59;5049826;28;20025;-74
2023/03/07 00:17:06;;;;;;;26.08;9.35;;;;;;;-144.47;100.00;53072.59;5054432;28;20044;-72
2023/03/07 00:19:33;;;;;;;25.23;10.63;;;;;;;-144.47;100.00;53062.66;5049880;28;20032;-70
2023/03/07 00:21:58;;;;;;;22.92;9.57;;;;;;;-144.47;100.00;53074.56;5048430;28;20108;-71
2023/03/07 00:24:23;;;;;;;22.92;10.20;;;;;;;-144.47;100.00;53032.88;5052155;28;20679;-71
2023/03/07 00:26:49;;;;;;;25.67;9.77;;;;;;;-144.47;100.00;53094.44;5052888;28;20530;-70
2023/03/07 00:29:14;;;;;;;22.35;10.45;;;;;;;-144.47;100.00;53084.50;5053405;28;20029;-71
2023/03/07 00:31:39;;;;;;;19.20;9.57;;;;;;;-144.47;100.00;53090.47;5053785;28;20025;-71
2023/03/07 00:34:05;;;;;;;20.92;9.57;;;;;;;-144.47;100.00;53068.63;5052940;28;20575;-72
2023/03/07 00:36:30;;;;;;;22.52;9.55;;;;;;;-144.47;100.00;53082.53;5052910;28;20028;-70
2023/03/07 00:38:56;;;;;;;21.23;9.40;;;;;;;-144.47;100.00;53084.50;5052044;28;20596;-71
2023/03/07 00:41:26;;;;;;;25.13;10.43;;;;;;;-144.47;100.00;53070.59;5053180;28;20044;-71
2023/03/07 00:43:53;;;;;;;22.20;9.75;;;;;;;-144.47;100.00;53062.66;5053398;28;20021;-71
2023/03/07 00:46:20;;;;;;;18.80;8.40;;;;;;;-144.47;100.00;53090.47;5053002;28;20060;-71
2023/03/07 00:48:46;;;;;;;24.08;9.52;;;;;;;-144.47;100.00;53072.59;5056386;28;20033;-70
2023/03/07 00:51:14;;;;;;;21.08;9.20;;;;;;;-144.47;100.00;53070.59;5052597;28;20386;-70
2023/03/07 00:53:40;;;;;;;22.42;10.45;;;;;;;-144.47;100.00;53062.66;5049574;28;20490;-70
2023/03/07 00:56:11;;;;;;;23.55;10.52;;;;;;;-144.47;100.00;53088.47;5053210;28;20051;-70
2023/03/07 00:58:36;;;;;;;28.27;10.18;;;;;;;-144.47;100.00;53096.41;5053033;28;20020;-70
2023/03/07 01:01:04;;;;;;;25.65;10.63;;;;;;;-144.47;100.00;53074.56;5052876;28;20372;-71
2023/03/07 01:03:29;;;;;;;26.48;10.07;;;;;;;-144.47;100.00;53062.66;5052633;28;20627;-72
2023/03/07 01:05:57;;;;;;;25.10;10.40;;;;;;;-144.47;100.00;53060.66;5052859;28;20032;-73
2023/03/07 01:08:22;;;;;;;21.50;9.63;;;;;;;-144.47;100.00;53062.66;5054788;28;20048;-70
2023/03/07 01:10:48;;;;;;;22.33;9.15;;;;;;;-144.47;100.00;53064.66;5051584;28;20036;-71
2023/03/07 01:13:15;;;;;;;18.95;9.45;;;;;;;-144.47;100.00;53058.69;5060370;28;20024;-72
2023/03/07 01:15:41;;;;;;;26.88;8.85;;;;;;;-144.47;100.00;53080.53;5052449;28;20372;-71
2023/03/07 01:18:07;;;;;;;21.98;9.10;;;;;;;-144.47;100.00;53092.44;5051685;28;20029;-72
2023/03/07 01:20:35;;;;;;;24.60;9.65;;;;;;;-144.47;100.00;53062.66;5034647;28;20112;-71
2023/03/07 01:23:01;;;;;;;20.73;8.48;;;;;;;-144.47;100.00;53086.50;5052593;28;20029;-73
2023/03/07 01:25:27;;;;;;;22.52;9.35;;;;;;;-144.47;100.00;53082.53;5052513;28;20542;-72
2023/03/07 01:27:54;;;;;;;22.70;9.23;;;;;;;-144.47;100.00;53082.53;5052067;28;20080;-72
2023/03/07 01:30:20;;;;;;;19.73;9.70;;;;;;;-144.47;100.00;53062.66;5052400;28;20017;-71
2023/03/07 01:32:47;;;;;;;26.27;10.10;;;;;;;-144.47;100.00;53086.50;5052105;28;20037;-72
2023/03/07 01:35:13;;;;;;;25.42;10.40;;;;;;;-144.47;100.00;53048.75;5051404;28;20028;-69
2023/03/07 01:37:39;;;;;;;22.75;9.27;;;;;;;-144.47;100.00;53074.56;5052238;28;20095;-69
2023/03/07 01:40:05;;;;;;;20.48;9.18;;;;;;;-144.47;100.00;53064.66;5051579;28;20474;-71
2023/03/07 01:42:31;;;;;;;18.23;8.68;;;;;;;-144.47;100.00;53072.59;5052239;28;20060;-71
2023/03/07 01:44:56;;;;;;;17.23;8.95;;;;;;;-144.47;100.00;53062.66;5051975;28;20021;-70
2023/03/07 01:47:22;;;;;;;24.27;10.35;;;;;;;-144.47;100.00;53070.59;5051329;28;20442;-71
2023/03/07 01:49:47;;;;;;;22.00;10.07;;;;;;;-144.47;100.00;53040.81;5035785;28;20070;-70
2023/03/07 01:52:22;;;;;;;19.75;9.13;;;;;;;-144.47;100.00;53080.53;5060223;28;20057;-71
2023/03/07 01:54:51;;;;;;;21.45;8.88;;;;;;;-144.47;99.90;53078.53;5051566;28;20052;-71
2023/03/07 01:57:24;;;;;;;23.58;10.82;;;;;;;-144.47;99.05;53052.72;5051516;28;20055;-71
2023/03/07 01:59:53;;;;;;;21.98;10.95;;;;;;;-144.47;98.93;53064.66;5051488;28;20017;-71
2023/03/07 02:02:21;;;;;;;25.38;9.93;;;;;;;-144.47;98.33;53028.88;5033891;28;20031;-71
2023/03/07 02:05:18;;;;;;;20.33;9.98;;;;;;;-144.47;98.02;53080.53;5051543;28;20029;-70
2023/03/07 02:07:48;;;;;;;26.17;10.00;;;;;;;-144.47;97.73;53070.59;5052740;28;20074;-71
2023/03/07 02:10:16;;;;;;;26.42;10.77;;;;;;;-144.47;97.86;53070.59;5058545;28;20542;-72
2023/03/07 02:12:41;;;;;;;22.50;10.50;;;;;;;-144.47;97.91;53054.72;5056015;28;20045;-71
2023/03/07 02:15:09;;;;;;;27.95;11.75;;;;;;;-144.47;97.37;53048.75;5051429;28;20474;-70
2023/03/07 02:17:34;;;;;;;22.38;9.57;;;;;;;-144.47;97.33;53072.59;5051320;28;20104;-70
2023/03/07 02:20:30;;;;;;;25.27;10.48;;;;;;;-144.47;97.10;53066.63;5051578;28;20096;-71
2023/03/07 02:22:56;;;;;;;21.92;10.27;;;;;;;-144.47;97.09;53054.72;5051194;28;20495;-71
2023/03/07 02:26:00;;;;;;;29.80;10.88;;;;;;;-144.47;96.92;53076.56;5051777;28;20075;-70
2023/03/07 02:28:27;;;;;;;24.00;11.52;;;;;;;-144.47;96.32;53076.56;5051491;28;20028;-69
2023/03/07 02:31:05;;;;;;;30.25;11.15;;;;;;;-144.47;96.18;53058.69;5051376;28;20086;-70
2023/03/07 02:33:30;;;;;;;24.73;10.55;;;;;;;-144.47;95.97;53058.69;5051816;28;20028;-71
2023/03/07 02:36:04;;;;;;;26.00;10.98;;;;;;;-144.47;96.04;53046.75;5033566;28;20136;-72
2023/03/07 02:38:35;;;;;;;17.50;9.93;;;;;;;-144.47;95.50;53054.72;5051025;28;20106;-71
2023/03/07 02:41:01;;;;;;;22.63;10.38;;;;;;;-144.47;95.54;53068.63;5050749;28;20467;-72
2023/03/07 02:43:26;;;;;;;21.38;9.90;;;;;;;-144.47;94.92;53056.69;5050976;28;20033;-72
2023/03/07 02:45:51;;;;;;;25.48;11.32;;;;;;;-144.47;94.50;53062.66;5051278;28;20082;-72
2023/03/07 02:48:17;;;;;;;21.88;9.85;;;;;;;-144.47;94.25;53028.88;5042120;28;20113;-72
2023/03/07 02:50:43;;;;;;;24.10;9.82;;;;;;;-144.47;94.10;53026.91;5062523;28;20028;-72
2023/03/07 02:53:08;;;;;;;21.48;11.00;;;;;;;-144.47;94.05;53076.56;5051292;28;20028;-71
2023/03/07 02:55:34;;;;;;;19.58;10.77;;;;;;;-144.47;93.66;53050.75;5050904;28;20029;-71
2023/03/07 02:57:59;;;;;;;21.20;10.90;;;;;;;-144.47;93.07;53070.59;5050584;28;20021;-72
2023/03/07 03:00:25;;;;;;;22.77;10.43;;;;;;;-144.47;92.66;53048.75;5051145;28;20028;-72
2023/03/07 03:02:50;;;;;;;25.45;9.35;;;;;;;-144.47;93.01;53056.69;5050305;28;20027;-71
2023/03/07 03:05:16;;;;;;;21.63;10.25;;;;;;;-144.47;91.77;53068.63;5032862;28;20509;-71
2023/03/07 03:07:41;;;;;;;20.20;9.50;;;;;;;-144.47;91.25;53074.56;5050287;28;20028;-71
2023/03/07 03:10:07;;;;;;;19.60;9.15;;;;;;;-144.47;90.35;53062.66;5049588;28;20127;-72
2023/03/07 03:12:32;;;;;;;19.70;9.57;;;;;;;-144.47;90.23;53064.66;5055238;28;20039;-71
2023/03/07 03:14:58;;;;;;;21.63;9.00;;;;;;;-144.47;90.20;53034.84;5032577;28;20025;-69
2023/03/07 03:17:23;;;;;;;22.52;10.43;;;;;;;-144.47;89.32;53052.72;5050156;28;20032;-72
2023/03/07 03:19:48;;;;;;;21.02;9.68;;;;;;;-144.47;88.63;53066.63;5050402;28;20029;-72
2023/03/07 03:22:14;;;;;;;21.60;9.88;;;;;;;-144.47;88.14;53052.72;5050168;28;20025;-72
2023/03/07 03:24:41;;;;;;;18.23;9.00;;;;;;;-144.47;88.19;53034.84;5050112;28;20071;-72
2023/03/07 03:27:07;;;;;;;18.67;9.30;;;;;;;-144.47;88.21;53044.78;5049465;28;20052;-72
2023/03/07 03:29:32;;;;;;;21.98;7.82;;;;;;;-144.47;87.87;53064.66;5050039;28;20108;-70
2023/03/07 03:31:58;;;;;;;23.08;10.50;;;;;;;-144.47;87.69;53044.78;5049872;28;20032;-71
2023/03/07 03:34:23;;;;;;;22.75;9.93;;;;;;;-144.47;87.39;53048.75;5049912;28;20033;-71
2023/03/07 03:36:48;;;;;;;16.23;8.45;;;;;;;-144.47;87.27;53026.91;5032016;28;20021;-71
2023/03/07 03:39:14;;;;;;;19.30;8.85;;;;;;;-144.47;86.70;53038.81;5050001;28;20459;-71
2023/03/07 03:41:39;;;;;;;22.20;9.35;;;;;;;-144.47;86.04;53038.81;5049827;28;20029;-73
2023/03/07 03:44:05;;;;;;;17.42;8.13;;;;;;;-144.47;86.14;53018.97;5031781;28;20479;-72
2023/03/07 03:46:30;;;;;;;26.60;10.20;;;;;;;-144.47;86.41;53050.75;5049602;28;20017;-70
2023/03/07 03:48:56;;;;;;;19.77;8.63;;;;;;;-144.47;85.73;53036.84;5044773;28;20131;-70
2023/03/07 03:51:23;;;;;;;18.48;8.90;;;;;;;-144.47;85.97;53016.97;5062730;28;20029;-71
2023/03/07 03:53:49;;;;;;;18.67;10.00;;;;;;;-144.47;85.42;53036.84;5050346;28;20636;-72
2023/03/07 03:56:20;;;;;;;15.68;7.25;;;;;;;-144.47;84.98;53066.63;5049311;28;20469;-70
2023/03/07 03:58:52;;;;;;;19.15;8.60;;;;;;;-144.47;85.31;53038.81;5050130;28;20031;-71
2023/03/07 04:01:19;;;;;;;21.55;9.40;;;;;;;-144.47;85.26;53054.72;5050937;28;20033;-69
2023/03/07 04:03:46;;;;;;;14.60;8.23;;;;;;;-144.47;84.53;53040.81;5052020;28;20055;-72
2023/03/07 04:06:15;;;;;;;21.13;8.88;;;;;;;-144.47;83.83;53024.91;5051520;28;20021;-72
2023/03/07 04:08:41;;;;;;;17.73;8.35;;;;;;;-144.47;83.84;53030.88;5060717;28;20029;-73
2023/03/07 04:11:06;;;;;;;18.63;8.43;;;;;;;-144.47;83.81;53038.81;5049139;28;20047;-71
2023/03/07 04:13:33;;;;;;;21.33;7.72;;;;;;;-144.47;83.52;53036.84;5053783;28;20100;-71
2023/03/07 04:15:59;;;;;;;15.98;7.68;;;;;;;-144.47;83.66;53046.75;5031422;28;20053;-72
2023/03/07 04:18:24;;;;;;;16.80;7.28;;;;;;;-144.47;82.72;53042.78;5049091;28;20064;-71
2023/03/07 04:20:51;;;;;;;19.15;8.18;;;;;;;-144.47;82.17;53028.88;5049232;28;20094;-71
2023/03/07 04:25:56;;;;;;;20.58;8.85;;;;;;;-144.47;82.02;52993.13;5035567;28;20057;-69
2023/03/07 04:28:23;;;;;;;14.52;6.97;;;;;;;-144.47;80.98;53032.88;5036553;28;20056;-67
2023/03/07 04:30:51;;;;;;;18.23;8.07;;;;;;;-144.47;80.98;53048.75;5037297;28;20026;-69
2023/03/07 04:33:19;;;;;;;15.48;7.25;;;;;;;-144.47;81.28;53050.75;5037025;28;20196;-68
2023/03/07 04:35:47;;;;;;;19.95;8.10;;;;;;;-144.47;81.64;53038.81;5038105;28;20089;-69
2023/03/07 04:38:14;;;;;;;16.20;6.88;;;;;;;-144.47;81.60;53042.78;5032405;28;20494;-67
2023/03/07 04:40:39;;;;;;;15.73;7.88;;;;;;;-144.47;81.67;53026.91;5031132;28;20091;-68
2023/03/07 04:43:05;;;;;;;21.35;7.88;;;;;;;-144.47;81.92;53034.84;5031945;28;20128;-68
2023/03/07 04:45:33;;;;;;;17.40;8.30;;;;;;;-144.47;82.15;53040.81;5031320;28;20116;-68
2023/03/07 04:47:58;;;;;;;20.23;8.55;;;;;;;-144.47;82.56;53030.88;5027379;28;20022;-69
2023/03/07 04:50:24;;;;;;;16.15;7.53;;;;;;;-144.47;82.52;53018.97;5043940;28;20039;-67
2023/03/07 04:52:49;;;;;;;17.10;8.13;;;;;;;-144.47;83.29;53032.88;5036314;28;20491;-68
2023/03/07 04:55:15;;;;;;;15.50;7.50;;;;;;;-144.47;83.17;53044.78;5031832;28;20565;-68
2023/03/07 04:57:40;;;;;;;15.23;7.28;;;;;;;-144.47;83.58;53034.84;5031529;28;20033;-68
2023/03/07 05:00:08;;;;;;;16.58;7.05;;;;;;;-144.47;83.59;53034.84;5032213;28;20034;-68
2023/03/07 05:02:34;;;;;;;16.65;8.23;;;;;;;-144.47;83.26;53024.91;5031558;28;20108;-67
2023/03/07 05:05:00;;;;;;;17.85;7.30;;;;;;;-144.47;83.65;53062.66;5032953;28;20029;-67
2023/03/07 05:07:25;;;;;;;18.25;7.85;;;;;;;-144.47;83.20;53022.94;5033298;28;20144;-69
2023/03/07 05:09:52;;;;;;;16.52;6.95;;;;;;;-144.47;83.65;53040.81;5033964;28;20044;-67
2023/03/07 05:12:17;;;;;;;15.50;6.70;;;;;;;-144.47;83.51;53013.00;5039603;28;20510;-67
2023/03/07 05:14:43;;;;;;;15.65;7.45;;;;;;;-144.47;82.82;53030.88;5035316;28;20100;-66
2023/03/07 05:17:11;;;;;;;13.20;6.20;;;;;;;-144.47;83.40;53024.91;5035198;28;20555;-67
2023/03/07 05:19:36;;;;;;;18.90;7.40;;;;;;;-144.47;83.28;53022.94;5033228;28;20168;-68
2023/03/07 05:22:02;;;;;;;16.40;7.10;;;;;;;-144.47;83.26;53007.03;5034826;28;20147;-67
2023/03/07 05:24:27;;;;;;;12.60;6.13;;;;;;;-144.47;83.37;53050.75;5033973;28;20030;-68
2023/03/07 05:26:52;;;;;;;11.60;6.50;;;;;;;-144.47;83.31;53052.72;5034427;28;20026;-66
2023/03/07 05:29:18;;;;;;;16.40;7.53;;;;;;;-144.47;83.87;53034.84;5034695;28;20438;-68
2023/03/07 05:31:43;;;;;;;12.30;6.00;;;;;;;-144.47;83.94;53050.75;5036395;28;20025;-67
2023/03/07 05:34:09;;;;;;;14.00;6.50;;;;;;;-144.47;84.21;53038.81;5035931;28;20184;-68
2023/03/07 05:36:35;;;;;;;18.17;7.28;;;;;;;-144.47;84.63;53038.81;5034978;28;20087;-68
2023/03/07 05:39:00;;;;;;;14.32;6.55;;;;;;;-144.47;84.93;53050.75;5036017;28;20026;-67
2023/03/07 05:41:27;;;;;;;11.15;5.68;;;;;;;-144.47;85.25;53020.94;5034148;28;20622;-67
2023/03/07 05:43:54;;;;;;;12.30;5.85;;;;;;;-144.47;85.64;53007.03;5035382;28;20077;-68
2023/03/07 05:46:19;;;;;;;11.18;5.93;;;;;;;-144.47;85.93;53060.66;5038045;28;20051;-65
2023/03/07 05:48:45;;;;;;;13.65;5.75;;;;;;;-144.47;85.80;53028.88;5035004;28;20085;-70
2023/03/07 05:51:10;;;;;;;13.45;5.05;;;;;;;-144.47;85.83;53042.78;5036798;28;20056;-68
2023/03/07 05:53:36;;;;;;;10.90;5.30;;;;;;;-144.47;85.83;53011.00;5037114;28;20072;-69
2023/03/07 05:56:01;;;;;;;10.73;5.10;;;;;;;-144.47;86.78;53013.00;5036336;28;20111;-69
2023/03/07 05:58:26;;;;;;;11.45;5.13;;;;;;;-144.47;85.97;53018.97;5038495;28;20041;-69
2023/03/07 06:00:52;;;;;;;12.25;5.88;;;;;;;-144.47;85.63;53042.78;5041826;28;20049;-67
2023/03/07 06:03:17;;;;;;;9.02;4.22;;;;;;;-144.47;85.38;53018.97;5041562;28;20028;-69
2023/03/07 06:05:42;;;;;;;14.02;5.13;;;;;;;-144.47;85.37;53038.81;5037589;28;20025;-69
2023/03/07 06:08:08;;;;;;;10.15;5.00;;;;;;;-144.47;85.40;53003.06;5048463;28;20120;-69
2023/03/07 06:10:33;;;;;;;11.02;4.55;;;;;;;-144.47;85.98;53018.97;5053777;28;20399;-69
2023/03/07 06:12:59;;;;;;;12.20;4.45;;;;;;;-144.47;86.13;53032.88;5038158;28;20407;-65
2023/03/07 06:15:24;;;;;;;11.60;5.68;;;;;;;-144.47;86.42;53016.97;5035641;28;20037;-69
2023/03/07 06:17:51;;;;;;;10.88;4.65;;;;;;;-144.47;87.04;53022.94;5031276;28;20044;-67
2023/03/07 06:20:19;;;;;;;13.30;5.10;;;;;;;-144.47;87.38;53034.84;5031433;28;20036;-69
2023/03/07 06:22:45;;;;;;;13.37;4.87;;;;;;;-144.47;87.24;53016.97;5038667;28;20044;-69
2023/03/07 06:25:10;;;;;;;10.32;4.97;;;;;;;-144.47;87.39;53026.91;5028830;28;20056;-67
2023/03/07 06:27:36;;;;;;;11.68;4.78;;;;;;;-144.47;87.45;53026.91;5030298;28;20079;-68
2023/03/07 06:30:04;;;;;;;10.98;5.00;;;;;;;-144.47;87.92;53040.81;5031583;28;20044;-67
2023/03/07 06:32:30;;;;;;;13.23;4.55;;;;;;;-144.47;87.64;53052.72;5030982;28;20026;-67
2023/03/07 06:34:56;;;;;;;9.57;4.38;;;;;;;-144.47;88.14;53036.84;5030839;28;20376;-69
2023/03/07 06:37:22;;;;;;;10.70;4.88;;;;;;;-144.47;87.72;53005.06;5035360;28;20039;-68
2023/03/07 06:39:47;;;;;;;9.38;4.50;;;;;;;-144.47;87.67;53030.88;5032594;28;20096;-68
2023/03/07 06:42:12;;;;;;;10.80;4.50;;;;;;;-144.47;86.92;53015.00;5033066;28;20124;-69
2023/03/07 06:44:38;;;;;;;11.00;4.45;;;;;;;-144.47;87.01;53024.91;5041593;28;20029;-68
2023/03/07 06:47:03;;;;;;;10.30;4.72;;;;;;;-144.47;86.68;53058.69;5038619;28;20030;-67
2023/03/07 06:49:28;;;;;;;11.90;5.13;;;;;;;-144.47;86.70;53042.78;5029729;28;20109;-66
2023/03/07 06:51:54;;;;;;;8.57;4.07;;;;;;;-144.47;86.37;53034.84;5036576;28;20463;-68
2023/03/07 06:54:19;;;;;;;9.63;4.65;;;;;;;-144.47;85.92;53028.88;5032212;28;20018;-67
2023/03/07 06:56:45;;;;;;;9.30;3.92;;;;;;;-144.47;85.95;53022.94;5033103;28;20037;-69
2023/03/07 06:59:10;;;;;;;9.13;4.18;;;;;;;-144.47;86.25;53020.94;5034827;28;20021;-68
2023/03/07 07:01:36;;;;;;;8.18;3.88;;;;;;;-144.47;85.95;52999.09;5036630;28;20083;-68
2023/03/07 07:04:02;;;;;;;7.78;3.88;;;;;;;-144.47;85.96;53030.88;5036689;28;20125;-69
2023/03/07 07:06:28;;;;;;;11.82;4.82;;;;;;;-144.47;85.62;53020.94;5036652;28;20359;-67
2023/03/07 07:08:55;;;;;;;9.82;3.88;;;;;;;-144.47;85.70;53015.00;5036372;28;20037;-69
2023/03/07 07:11:21;;;;;;;8.43;3.95;;;;;;;-144.47;85.87;53009.03;5028424;28;20029;-67
2023/03/07 07:13:47;;;;;;;9.90;4.88;;;;;;;-144.47;85.90;53020.94;5028499;28;20043;-67
2023/03/07 07:16:12;;;;;;;6.68;3.30;;;;;;;-144.47;85.09;52985.19;5030240;28;20037;-65
2023/03/07 07:18:37;;;;;;;13.07;4.10;;;;;;;-144.47;85.68;53020.94;5033276;28;20128;-67
2023/03/07 07:21:04;;;;;;;7.35;3.75;;;;;;;-144.47;85.18;53034.84;5027569;28;20493;-67
2023/03/07 07:23:29;;;;;;;9.75;4.32;;;;;;;-144.47;84.82;53013.00;5028926;28;20084;-67
2023/03/07 07:25:55;;;;;;;8.75;4.35;;;;;;;-144.47;84.98;52995.13;5026230;28;20157;-69
2023/03/07 07:28:20;;;;;;;10.60;4.15;;;;;;;-144.47;84.53;53011.00;5026092;28;20409;-71
2023/03/07 07:30:46;;;;;;;9.45;3.78;;;;;;;-144.47;84.18;52995.13;5025027;28;20045;-69
2023/03/07 07:33:11;;;;;;;7.38;3.63;;;;;;;-144.47;83.79;52997.09;5027718;28;20025;-70
2023/03/07 07:35:38;;;;;;;10.73;3.90;;;;;;;-144.47;83.86;53018.97;5029760;28;20029;-67
2023/03/07 07:38:03;;;;;;;13.80;3.72;;;;;;;-144.47;83.10;52999.09;5030291;28;20033;-68
2023/03/07 07:40:29;;;;;;;7.95;3.85;;;;;;;-144.47;83.04;53015.00;5024957;28;20037;-67
2023/03/07 07:42:54;;;;;;;9.88;4.18;;;;;;;-144.47;83.12;53030.88;5028914;28;20847;-69
2023/03/07 07:45:21;;;;;;;7.15;3.42;;;;;;;-144.47;82.79;52985.19;5026890;28;20127;-68
2023/03/07 07:47:48;;;;;;;9.85;4.03;;;;;;;-144.47;82.69;53007.03;5025305;28;21400;-67
2023/03/07 07:50:17;;;;;;;8.43;3.42;;;;;;;-144.47;81.61;52999.09;5024388;28;20093;-69
2023/03/07 07:52:43;;;;;;;8.20;3.83;;;;;;;-144.47;81.99;52995.13;5026269;28;20491;-68
2023/03/07 07:55:09;;;;;;;10.10;3.85;;;;;;;-144.47;80.73;53007.03;5025237;28;20112;-68
2023/03/07 07:57:35;;;;;;;8.27;3.88;;;;;;;-144.47;80.34;52995.13;5024639;28;20135;-68
2023/03/07 08:00:01;;;;;;;9.63;4.22;;;;;;;-144.47;81.53;52975.25;5025230;28;20479;-69
2023/03/07 08:02:27;;;;;;;11.85;4.20;;;;;;;-144.47;80.26;52999.09;5024099;28;20037;-67
2023/03/07 08:04:53;;;;;;;7.00;3.38;;;;;;;-144.47;80.12;53009.03;5025322;28;20149;-68
2023/03/07 08:07:18;;;;;;;8.52;4.38;;;;;;;-144.47;80.58;52975.25;5021331;28;20150;-67
2023/03/07 08:09:43;;;;;;;5.30;2.78;;;;;;;-144.47;79.44;52985.19;5022996;28;20044;-70
2023/03/07 08:12:12;;;;;;;6.65;2.88;;;;;;;-144.47;79.39;52989.16;5024551;28;20037;-68
2023/03/07 08:14:38;;;;;;;7.35;3.13;;;;;;;-144.47;78.59;52969.31;5024585;28;20123;-67
2023/03/07 08:17:04;;;;;;;7.00;3.08;;;;;;;-144.47;79.19;52981.22;5026527;28;20033;-67
2023/03/07 08:19:29;;;;;;;5.75;2.85;;;;;;;-144.47;78.21;52981.22;5024685;28;20338;-67
2023/03/07 08:21:54;;;;;;;6.82;3.35;;;;;;;-144.47;78.75;52993.13;5024855;28;20120;-69
2023/03/07 08:24:21;;;;;;;5.68;3.00;;;;;;;-144.47;78.45;52981.22;5026620;28;20057;-68
2023/03/07 08:26:46;;;;;;;7.68;3.00;;;;;;;-144.47;78.37;52955.41;5026990;28;20134;-66
2023/03/07 08:29:12;;;;;;;8.13;3.78;;;;;;;-144.47;77.84;53003.06;5026534;28;20080;-66
2023/03/07 08:31:37;;;;;;;6.28;2.92;;;;;;;-144.47;78.44;52967.31;5027807;28;20408;-67
2023/03/07 08:34:03;;;;;;;11.57;2.83;;;;;;;-144.47;77.95;52987.19;5030455;28;20112;-66
2023/03/07 08:36:29;;;;;;;6.57;3.08;;;;;;;-144.47;77.67;52963.34;5024914;28;20189;-69
2023/03/07 08:38:54;;;;;;;6.50;3.17;;;;;;;-144.47;77.74;52991.16;5026419;28;20121;-68
2023/03/07 08:41:21;;;;;;;7.43;3.42;;;;;;;-144.47;77.52;52983.22;5027617;28;20088;-68
2023/03/07 08:43:47;;;;;;;8.77;3.55;;;;;;;-144.47;77.72;52979.22;5030728;28;20040;-68
2023/03/07 08:46:13;;;;;;;7.90;3.38;;;;;;;-144.47;77.45;52993.13;5033899;28;20052;-65
2023/03/07 08:48:38;;;;;;;5.82;3.20;;;;;;;-144.47;77.32;52993.13;5035466;28;20064;-69
2023/03/07 08:51:07;;;;;;;5.30;2.78;;;;;;;-144.47;77.27;52989.16;5026182;28;20093;-68
2023/03/07 08:53:33;;;;;;;7.65;3.80;;;;;;;-144.47;77.90;52963.34;5026148;28;20139;-68
2023/03/07 08:55:58;;;;;;;7.40;3.05;;;;;;;-144.47;77.20;52971.28;5027088;28;20167;-67
2023/03/07 08:58:23;;;;;;;8.00;3.20;;;;;;;-144.47;77.02;52979.22;5029437;28;20047;-68
2023/03/07 09:00:49;;;;;;;7.53;3.58;;;;;;;-144.47;77.65;52933.56;5029589;28;20112;-67
2023/03/07 09:03:14;;;;;;;6.05;2.88;;;;;;;-144.47;77.43;52995.13;5028121;28;20036;-69
2023/03/07 09:05:40;;;;;;;7.20;3.08;;;;;;;-144.47;77.31;52973.28;5025183;28;20552;-67
2023/03/07 09:08:06;;;;;;;7.57;3.55;;;;;;;-144.47;76.17;52971.28;5028526;28;20156;-67
2023/03/07 09:10:32;;;;;;;6.47;3.30;;;;;;;-144.47;77.50;52971.28;5025331;28;20033;-69
2023/03/07 09:12:58;;;;;;;10.85;4.15;;;;;;;-144.47;77.20;52959.38;5027748;28;20074;-67
2023/03/07 09:15:24;;;;;;;8.70;3.83;;;;;;;-144.47;76.80;52955.41;5025280;28;20202;-70
2023/03/07 09:17:49;;;;;;;7.30;3.53;;;;;;;-144.47;76.94;52991.16;5027089;28;20056;-68
2023/03/07 09:20:15;;;;;;;7.22;3.50;;;;;;;-144.47;76.76;52965.34;5025983;28;20021;-70
2023/03/07 09:22:41;;;;;;;6.78;3.30;;;;;;;-144.47;76.28;52945.47;5027821;28;20097;-68
2023/03/07 09:25:07;;;;;;;9.15;4.18;;;;;;;-144.47;76.45;52951.44;5023406;28;20021;-68
2023/03/07 09:27:32;;;;;;;6.72;3.50;;;;;;;-144.47;76.80;52949.44;5023557;28;20049;-68
2023/03/07 09:29:57;;;;;;;7.03;3.60;;;;;;;-144.47;76.85;52975.25;5027095;28;20033;-66
2023/03/07 09:32:23;;;;;;;11.60;3.50;;;;;;;-144.47;76.64;52959.38;5029444;28;20112;-68
2023/03/07 09:34:48;;;;;;;7.97;4.20;;;;;;;-144.47;76.22;52949.44;5028402;28;20075;-67
2023/03/07 09:37:13;;;;;;;8.80;4.30;;;;;;;-144.47;75.87;52943.47;5026824;28;20112;-68
2023/03/07 09:39:39;;;;;;;8.32;3.90;;;;;;;-144.47;77.25;52937.53;5030138;28;20109;-69
2023/03/07 09:42:23;;;;;;;7.85;4.00;;;;;;;-144.47;76.35;52955.41;5026399;28;20130;-68
2023/03/07 09:45:01;;;;;;;8.98;4.38;;;;;;;-144.47;74.94;52963.34;5029139;28;20036;-69
2023/03/07 09:48:00;;;;;;;7.43;3.72;;;;;;;-144.47;75.11;52943.47;5031968;28;20033;-68
2023/03/07 09:50:37;;;;;;;7.60;4.03;;;;;;;-144.47;75.37;52935.53;5028700;28;20175;-68
2023/03/07 09:53:03;;;;;;;9.70;4.05;;;;;;;-144.47;75.65;52973.28;5028119;28;20056;-69
2023/03/07 09:55:30;;;;;;;8.75;4.63;;;;;;;-144.47;75.68;52965.34;5019606;28;20110;-66
2023/03/07 09:57:59;;;;;;;8.35;4.00;;;;;;;-144.47;75.56;52955.41;5026498;28;20037;-68
2023/03/07 10:00:39;;;;;;;12.05;4.07;;;;;;;-144.47;75.29;52963.34;5025883;28;20640;-68
2023/03/07 10:03:29;;;;;;;7.95;4.18;;;;;;;-144.47;75.16;52953.41;5028420;28;20021;-67
2023/03/07 10:05:58;;;;;;;8.85;4.50;;;;;;;-144.47;75.37;52963.34;5031106;28;20029;-69
2023/03/07 10:08:29;;;;;;;10.68;4.38;;;;;;;-144.47;76.11;52957.38;5027527;28;20033;-69
2023/03/07 10:11:23;;;;;;;8.00;4.55;;;;;;;-144.47;75.71;52939.50;5025952;28;20099;-68
2023/03/07 10:14:00;;;;;;;8.07;4.32;;;;;;;-144.47;75.42;52955.41;5026405;28;20454;-67
2023/03/07 10:17:01;;;;;;;8.65;4.53;;;;;;;-144.47;75.57;52967.31;5027682;28;20067;-70
2023/03/07 10:19:48;;;;;;;9.18;4.80;;;;;;;-144.47;75.29;52939.50;5023150;28;20037;-69
2023/03/07 10:22:35;;;;;;;9.15;4.80;;;;;;;-144.47;75.91;52941.50;5024784;28;20033;-70
2023/03/07 10:25:03;;;;;;;8.93;4.63;;;;;;;-144.47;75.48;52947.47;5031118;28;20030;-67
2023/03/07 10:27:29;;;;;;;11.90;4.73;;;;;;;-144.47;75.40;52959.38;5029000;28;20775;-68
2023/03/07 10:29:58;;;;;;;9.40;4.60;;;;;;;-144.47;76.06;52953.41;5026056;28;20295;-69
2023/03/07 10:32:42;;;;;;;9.45;4.70;;;;;;;-144.47;75.35;52959.38;5026729;28;20028;-70
2023/03/07 10:35:13;;;;;;;13.15;4.25;;;;;;;-144.47;75.57;52977.25;5027051;28;20048;-70
2023/03/07 10:37:42;;;;;;;9.75;4.78;;;;;;;-144.47;75.36;52951.44;5025602;28;20056;-70
2023/03/07 10:40:35;;;;;;;9.75;5.22;;;;;;;-144.47;75.33;52971.28;5028365;28;20071;-71
2023/03/07 10:43:00;;;;;;;8.88;4.45;;;;;;;-144.47;75.41;52967.31;5028341;28;20497;-70
2023/03/07 10:45:29;;;;;;;9.10;4.60;;;;;;;-144.47;75.68;52927.59;5024716;28;20112;-67
2023/03/07 10:48:04;;;;;;;10.50;4.72;;;;;;;-144.47;75.41;52959.38;5025492;28;20057;-69
2023/03/07 10:50:54;;;;;;;10.02;4.97;;;;;;;-144.47;74.12;52979.22;5023030;28;21056;-69
2023/03/07 10:53:29;;;;;;;9.38;4.45;;;;;;;-144.47;75.01;52975.25;5023287;28;20130;-69
2023/03/07 10:56:08;;;;;;;15.57;5.38;;;;;;;-144.47;74.64;52955.41;5029492;28;20045;-68
2023/03/07 10:58:34;;;;;;;7.85;4.07;;;;;;;-144.47;74.24;52953.41;5024714;28;20513;-69
2023/03/07 11:01:05;;;;;;;8.02;4.57;;;;;;;-144.47;74.20;52967.31;5024807;28;20040;-70
2023/03/07 11:03:52;;;;;;;10.18;4.93;;;;;;;-144.47;73.72;52959.38;5028821;28;20052;-70
2023/03/07 11:06:39;;;;;;;10.00;4.65;;;;;;;-144.47;73.10;52943.47;5025094;28;20033;-71
2023/03/07 11:09:14;;;;;;;11.60;5.43;;;;;;;-144.47;72.60;52943.47;5024085;28;20045;-71
2023/03/07 11:11:50;;;;;;;8.80;4.75;;;;;;;-144.47;72.53;52991.16;5028653;28;20029;-67
2023/03/07 11:14:16;;;;;;;11.77;4.82;;;;;;;-144.47;71.35;52953.41;5025841;28;20025;-70